Briefing drone pour Vizille

Rechercher une autre localisation

Conditions de vol :


Nous sommes le : Mardi 26 octobre 2021
Il est 21:43 UTC (23:43 LT)

Lever de soleil : 05:41 UTC (07:41 LT)
Coucher de soleil : 17:00 UTC (19:00 LT)

Météo

L'essentiel des conditions de vol

VIGILANCE MÉTÉO FRANCE - Isère (38)
Pas de vigilances particulieres
METAR de LFLS
LFLS 262130Z AUTO VRB02KT CAVOK 09/07 Q1025

Date d'émission: 26/10/2021
Heure d'émission: 21:30 UTC
Vent: Variable 2 KT (4 km/h)
Visibilité horizontale: > 10 km
Plafond : Plafond et visibilité OK (CAVOK)
Température: 9 °C
Point de rosée: 7 °C
Humidité: 87%
Pression (QNH): 1025 hPa
TAF de LFLS
LFLS 261900Z 2619/2715 CNL

Conditions prévues :

Heure d'émission : Bulletin éffectué le 26 à 19:00 UTC
Prévision : Valide du 26 a 19:00 UTC au 27 a 15:00 UTC
Nuages : à 0ft (0 m)
WEBCAM POUR VIZILLE

Réglementation

Voler en sécurité

CARTES AERONAUTIQUE 1/500.000
CARTES VAC (LFLS)
SUP AIP




Chargement des AIP...
NOTAM (VIZILLE + Terrain à proximité / FIR )




Chargement des NOTAMS...
CONTACT PREFECTURE 38


Avertissement : Les données mises à disposition sont indicatives. Oxygène Drone ne pourra être tenu responsable de dégâts causés aux biens et aux personnes.